createdAt,value
2022-12-31T00:02:04.474Z,1.57
2022-12-31T00:04:31.172Z,1.60
2022-12-31T00:06:57.870Z,1.40
2022-12-31T00:09:24.670Z,1.57
2022-12-31T00:11:51.262Z,1.50
2022-12-31T00:14:17.882Z,1.50
2022-12-31T00:16:44.512Z,1.57
2022-12-31T00:19:11.875Z,1.50
2022-12-31T00:21:38.715Z,1.40
2022-12-31T00:24:06.014Z,1.50
2022-12-31T00:26:33.282Z,1.50
2022-12-31T00:29:00.330Z,1.50
2022-12-31T00:31:37.488Z,1.33
2022-12-31T00:34:04.940Z,1.47
2022-12-31T00:36:33.604Z,1.10
2022-12-31T00:39:00.633Z,1.30
2022-12-31T00:41:27.591Z,1.33
2022-12-31T00:43:54.473Z,1.70
2022-12-31T00:46:21.334Z,1.40
2022-12-31T00:48:48.011Z,1.60
2022-12-31T00:51:16.692Z,1.30
2022-12-31T00:53:43.289Z,1.40
2022-12-31T00:56:14.737Z,1.40
2022-12-31T00:58:41.299Z,1.43
2022-12-31T01:01:24.540Z,1.13
2022-12-31T01:03:52.369Z,1.50
2022-12-31T01:06:18.998Z,1.20
2022-12-31T01:08:45.534Z,1.23
2022-12-31T01:11:24.799Z,1.40
2022-12-31T01:13:57.365Z,1.30
2022-12-31T01:16:26.525Z,1.50
2022-12-31T01:18:53.192Z,1.17
2022-12-31T01:21:19.923Z,1.30
2022-12-31T01:23:46.567Z,1.43
2022-12-31T01:26:14.383Z,1.37
2022-12-31T01:28:41.068Z,1.40
2022-12-31T01:31:12.246Z,1.43
2022-12-31T01:33:38.867Z,1.30
2022-12-31T01:36:13.523Z,1.40
2022-12-31T01:38:40.530Z,1.47
2022-12-31T01:41:07.541Z,1.40
2022-12-31T01:43:54.506Z,1.40
2022-12-31T01:46:37.478Z,1.47
2022-12-31T01:49:33.146Z,1.60
2022-12-31T01:52:32.990Z,1.30
2022-12-31T01:55:15.042Z,1.60
2022-12-31T01:57:41.643Z,1.40
2022-12-31T02:00:09.968Z,1.00
2022-12-31T02:02:36.768Z,1.40
2022-12-31T02:05:05.900Z,1.23
2022-12-31T02:07:32.445Z,1.30
2022-12-31T02:09:59.040Z,1.50
2022-12-31T02:12:25.575Z,1.40
2022-12-31T02:14:52.548Z,1.30
2022-12-31T02:17:54.541Z,1.10
2022-12-31T02:20:54.153Z,1.20
2022-12-31T02:23:45.762Z,1.23
2022-12-31T02:26:15.143Z,1.20
2022-12-31T02:29:14.929Z,1.23
2022-12-31T02:32:00.320Z,1.30
2022-12-31T02:34:32.789Z,1.20
2022-12-31T02:37:00.245Z,1.10
2022-12-31T02:39:26.833Z,1.00
2022-12-31T02:41:53.887Z,1.23
2022-12-31T02:44:30.089Z,1.10
2022-12-31T02:47:08.802Z,1.30
2022-12-31T02:50:06.398Z,1.37
2022-12-31T02:52:38.845Z,1.37
2022-12-31T02:55:26.095Z,1.30
2022-12-31T02:58:07.856Z,1.07
2022-12-31T03:00:53.561Z,1.50
2022-12-31T03:03:20.173Z,1.20
2022-12-31T03:05:46.725Z,1.30
2022-12-31T03:08:21.117Z,1.13
2022-12-31T03:10:47.609Z,1.10
2022-12-31T03:13:14.166Z,1.10
2022-12-31T03:15:40.715Z,1.20
2022-12-31T03:18:16.867Z,1.10
2022-12-31T03:21:06.794Z,1.33
2022-12-31T03:23:38.985Z,1.20
2022-12-31T03:26:11.560Z,1.10
2022-12-31T03:28:42.614Z,1.20
2022-12-31T03:31:09.350Z,1.10
2022-12-31T03:33:38.330Z,1.40
2022-12-31T03:36:12.662Z,1.20
2022-12-31T03:38:39.284Z,1.30
2022-12-31T03:41:05.883Z,1.20
2022-12-31T03:43:32.486Z,1.17
2022-12-31T03:46:01.494Z,1.00
2022-12-31T03:48:28.240Z,1.20
2022-12-31T03:50:54.904Z,1.50
2022-12-31T03:53:21.469Z,1.00
2022-12-31T03:55:54.113Z,1.23
2022-12-31T03:58:21.232Z,1.10
2022-12-31T04:00:47.878Z,1.20
2022-12-31T04:03:14.489Z,1.00
2022-12-31T04:05:41.221Z,1.13
2022-12-31T04:08:07.732Z,1.10
2022-12-31T04:10:34.371Z,1.27
2022-12-31T04:13:04.303Z,1.00
2022-12-31T04:15:30.876Z,0.87
2022-12-31T04:17:57.536Z,1.30
2022-12-31T04:20:24.137Z,1.40
2022-12-31T04:22:50.708Z,1.20
2022-12-31T04:25:17.507Z,1.20
2022-12-31T04:27:44.117Z,1.20
2022-12-31T04:30:11.886Z,1.17
2022-12-31T04:32:38.553Z,1.00
2022-12-31T04:35:05.568Z,1.40
2022-12-31T04:37:32.175Z,1.33
2022-12-31T04:40:05.184Z,1.20
2022-12-31T04:42:32.626Z,1.37
2022-12-31T04:44:59.208Z,1.00
2022-12-31T04:47:25.761Z,1.23
2022-12-31T04:49:52.345Z,1.20
2022-12-31T04:52:18.964Z,1.10
2022-12-31T04:54:45.503Z,1.10
2022-12-31T04:57:12.098Z,1.10
2022-12-31T04:59:38.800Z,1.00
2022-12-31T05:02:05.565Z,1.30
2022-12-31T05:04:32.433Z,1.20
2022-12-31T05:06:59.028Z,1.10
2022-12-31T05:09:27.518Z,1.30
2022-12-31T05:11:54.156Z,1.40
2022-12-31T05:14:20.713Z,1.20
2022-12-31T05:16:47.323Z,1.00
2022-12-31T05:19:13.868Z,1.00
2022-12-31T05:21:40.411Z,1.10
2022-12-31T05:24:07.381Z,1.20
2022-12-31T05:26:33.961Z,0.87
2022-12-31T05:29:00.642Z,1.00
2022-12-31T05:31:27.221Z,1.00
2022-12-31T05:33:53.905Z,1.00
2022-12-31T05:36:20.588Z,1.00
2022-12-31T05:38:47.219Z,1.10
2022-12-31T05:41:13.806Z,1.10
2022-12-31T05:43:40.399Z,1.10
2022-12-31T05:46:07.106Z,1.00
2022-12-31T05:48:33.740Z,1.00
2022-12-31T05:51:00.396Z,0.90
2022-12-31T05:53:26.950Z,1.10
2022-12-31T05:55:53.498Z,1.00
2022-12-31T05:58:20.060Z,0.93
2022-12-31T06:00:46.726Z,1.10
2022-12-31T06:03:13.520Z,1.00
2022-12-31T06:05:43.227Z,1.00
2022-12-31T06:08:10.649Z,0.80
2022-12-31T06:10:37.232Z,0.90
2022-12-31T06:13:03.914Z,0.90
2022-12-31T06:15:30.508Z,1.00
2022-12-31T06:17:57.133Z,1.10
2022-12-31T06:20:23.724Z,1.00
2022-12-31T06:22:50.270Z,0.90
2022-12-31T06:25:16.817Z,1.00
2022-12-31T06:27:43.560Z,1.00
2022-12-31T06:30:10.929Z,1.00
2022-12-31T06:32:37.545Z,1.10
2022-12-31T06:35:05.021Z,0.97
2022-12-31T06:37:31.614Z,1.10
2022-12-31T06:39:58.196Z,1.03
2022-12-31T06:42:24.702Z,1.00
2022-12-31T06:44:51.256Z,1.00
2022-12-31T06:47:17.880Z,0.90
2022-12-31T06:49:44.468Z,1.00
2022-12-31T06:52:11.051Z,1.00
2022-12-31T06:54:37.736Z,1.00
2022-12-31T06:57:05.114Z,1.07
2022-12-31T06:59:32.006Z,1.00
2022-12-31T07:02:13.391Z,1.10
2022-12-31T07:07:13.951Z,1.00
2022-12-31T07:09:59.661Z,1.10
2022-12-31T07:12:54.092Z,1.10
2022-12-31T07:15:38.985Z,1.10
2022-12-31T07:18:27.243Z,1.10
2022-12-31T07:20:54.010Z,0.90
2022-12-31T07:23:20.869Z,1.10
2022-12-31T07:26:13.984Z,1.10
2022-12-31T07:28:57.406Z,1.00
2022-12-31T07:31:36.521Z,1.10
2022-12-31T07:34:24.918Z,1.00
2022-12-31T07:37:07.613Z,1.10
2022-12-31T07:39:49.311Z,1.03
2022-12-31T07:42:26.730Z,0.90
2022-12-31T07:45:12.009Z,1.10
2022-12-31T07:47:38.536Z,1.10
2022-12-31T07:50:05.618Z,1.10
2022-12-31T07:52:32.483Z,1.10
2022-12-31T07:54:59.017Z,1.00
2022-12-31T07:57:27.876Z,0.90
2022-12-31T08:00:05.767Z,1.00
2022-12-31T08:03:01.089Z,1.00
2022-12-31T08:05:36.567Z,0.90
2022-12-31T08:08:28.150Z,1.00
2022-12-31T08:11:00.663Z,0.93
2022-12-31T08:13:27.263Z,1.10
2022-12-31T08:15:54.143Z,0.90
2022-12-31T08:18:21.020Z,1.00
2022-12-31T08:21:35.068Z,1.10
2022-12-31T08:24:16.690Z,1.10
2022-12-31T08:27:05.144Z,1.00
2022-12-31T08:29:36.008Z,0.90
2022-12-31T08:32:26.216Z,0.90
2022-12-31T08:35:19.550Z,1.10
2022-12-31T08:38:04.423Z,1.10
2022-12-31T08:40:52.187Z,0.90
2022-12-31T08:43:27.861Z,0.93
2022-12-31T08:45:54.587Z,1.00
2022-12-31T08:48:41.263Z,1.10
2022-12-31T08:51:24.417Z,1.00
2022-12-31T08:53:51.278Z,1.00
2022-12-31T08:56:23.681Z,0.90
2022-12-31T08:59:15.091Z,1.00
2022-12-31T09:01:58.859Z,0.90
2022-12-31T09:04:30.890Z,0.97
2022-12-31T09:06:59.853Z,0.90
2022-12-31T09:10:02.929Z,1.00
2022-12-31T09:12:57.735Z,1.10
2022-12-31T09:15:40.894Z,1.00
2022-12-31T09:18:08.890Z,0.80
2022-12-31T09:20:44.381Z,0.90
2022-12-31T09:23:12.353Z,1.10
2022-12-31T09:25:48.426Z,0.87
2022-12-31T09:28:18.279Z,0.90
2022-12-31T09:30:53.904Z,0.90
2022-12-31T09:33:40.577Z,1.20
2022-12-31T09:36:08.502Z,0.90
2022-12-31T09:38:45.993Z,0.90
2022-12-31T09:41:54.425Z,0.90
2022-12-31T09:44:42.847Z,0.80
2022-12-31T09:47:46.714Z,0.90
2022-12-31T09:50:17.946Z,1.20
2022-12-31T09:52:50.355Z,0.90
2022-12-31T09:55:38.476Z,1.00
2022-12-31T09:58:12.936Z,0.90
2022-12-31T10:00:43.887Z,1.00
2022-12-31T10:03:32.324Z,0.90
2022-12-31T10:06:04.903Z,1.00
2022-12-31T10:08:53.248Z,0.90
2022-12-31T10:11:28.478Z,0.90
2022-12-31T10:14:24.789Z,0.93
2022-12-31T10:17:13.703Z,0.90
2022-12-31T10:20:08.328Z,1.10
2022-12-31T10:22:40.998Z,1.10
2022-12-31T10:25:38.058Z,1.00
2022-12-31T10:28:24.668Z,0.90
2022-12-31T10:31:07.305Z,0.90
2022-12-31T10:33:41.817Z,0.90
2022-12-31T10:36:23.643Z,0.90
2022-12-31T10:39:13.475Z,0.90
2022-12-31T10:41:59.940Z,0.90
2022-12-31T10:44:38.734Z,1.07
2022-12-31T10:47:05.104Z,1.00
2022-12-31T10:49:34.589Z,0.90
2022-12-31T10:52:21.178Z,0.90
2022-12-31T10:55:13.021Z,0.90
2022-12-31T10:58:03.815Z,1.00
2022-12-31T11:00:34.462Z,0.90
2022-12-31T11:03:38.760Z,0.90
2022-12-31T11:06:20.458Z,1.00
2022-12-31T11:08:51.141Z,0.90
2022-12-31T11:11:26.765Z,0.90
2022-12-31T11:13:58.116Z,1.00
2022-12-31T11:16:52.731Z,1.00
2022-12-31T11:19:45.561Z,0.90
2022-12-31T11:22:50.681Z,0.90
2022-12-31T11:25:19.866Z,0.90
2022-12-31T11:27:58.171Z,0.90
2022-12-31T11:30:40.062Z,0.87
2022-12-31T11:33:34.437Z,0.90
2022-12-31T11:36:10.254Z,0.90
2022-12-31T11:38:53.684Z,0.70
2022-12-31T11:41:33.666Z,0.90
2022-12-31T11:44:20.899Z,0.90
2022-12-31T11:47:07.686Z,0.80
2022-12-31T11:49:48.546Z,1.00
2022-12-31T11:52:21.804Z,0.90
2022-12-31T11:55:00.526Z,0.90
2022-12-31T11:57:30.048Z,0.90
2022-12-31T12:00:07.301Z,0.90
2022-12-31T12:02:35.381Z,0.90
2022-12-31T12:05:10.344Z,0.73
2022-12-31T12:07:37.469Z,1.10
2022-12-31T12:10:07.262Z,0.90
2022-12-31T12:12:42.968Z,0.90
2022-12-31T12:15:10.511Z,1.00
2022-12-31T12:17:37.147Z,0.87
2022-12-31T12:20:10.813Z,0.90
2022-12-31T12:22:37.317Z,0.90
2022-12-31T12:25:06.643Z,1.00
2022-12-31T12:27:36.293Z,1.00
2022-12-31T12:30:18.760Z,1.00
2022-12-31T12:32:55.858Z,0.83
2022-12-31T12:35:30.089Z,1.00
2022-12-31T12:38:20.877Z,0.93
2022-12-31T12:40:55.815Z,0.90
2022-12-31T12:43:24.413Z,0.90
2022-12-31T12:45:52.325Z,0.90
2022-12-31T12:48:22.295Z,0.97
2022-12-31T12:50:49.181Z,0.90
2022-12-31T12:53:18.591Z,0.90
2022-12-31T12:56:39.124Z,0.90
2022-12-31T12:59:27.667Z,1.00
2022-12-31T13:02:06.616Z,0.97
2022-12-31T13:04:47.482Z,0.80
2022-12-31T13:07:25.616Z,0.90
2022-12-31T13:09:57.956Z,1.00
2022-12-31T13:12:48.995Z,0.93
2022-12-31T13:15:21.617Z,0.90
2022-12-31T13:17:59.953Z,0.90
2022-12-31T13:20:33.215Z,1.00
2022-12-31T13:23:18.725Z,1.07
2022-12-31T13:26:03.715Z,1.00
2022-12-31T13:28:30.844Z,0.90
2022-12-31T13:31:06.835Z,0.90
2022-12-31T13:33:37.120Z,0.87
2022-12-31T13:36:05.540Z,0.83
2022-12-31T13:38:38.672Z,0.90
2022-12-31T13:41:12.214Z,0.80
2022-12-31T13:43:38.642Z,0.90
2022-12-31T13:46:25.963Z,1.00
2022-12-31T13:48:56.192Z,0.90
2022-12-31T13:51:28.164Z,0.90
2022-12-31T13:54:15.474Z,0.87
2022-12-31T13:56:42.324Z,0.80
2022-12-31T13:59:18.488Z,0.80
2022-12-31T14:01:58.134Z,0.90
2022-12-31T14:04:37.154Z,0.80
2022-12-31T14:07:12.482Z,0.90
2022-12-31T14:09:39.088Z,0.90
2022-12-31T14:12:28.056Z,0.90
2022-12-31T14:15:03.684Z,1.00
2022-12-31T14:17:48.974Z,1.00
2022-12-31T14:20:43.603Z,0.90
2022-12-31T14:23:31.604Z,0.90
2022-12-31T14:26:02.254Z,0.80
2022-12-31T14:28:35.322Z,0.90
2022-12-31T14:31:28.734Z,0.80
2022-12-31T14:34:15.649Z,1.00
2022-12-31T14:37:02.580Z,0.90
2022-12-31T14:39:59.271Z,0.97
2022-12-31T14:42:41.917Z,0.90
2022-12-31T14:45:26.836Z,0.90
2022-12-31T14:48:35.114Z,0.93
2022-12-31T14:51:01.735Z,0.80
2022-12-31T14:53:28.574Z,0.90
2022-12-31T14:56:04.434Z,0.90
2022-12-31T14:58:38.764Z,0.90
2022-12-31T15:01:18.985Z,0.90
2022-12-31T15:03:46.913Z,0.83
2022-12-31T15:06:22.534Z,0.80
2022-12-31T15:09:14.056Z,0.90
2022-12-31T15:11:46.569Z,0.90
2022-12-31T15:14:30.900Z,0.70
2022-12-31T15:17:14.081Z,0.83
2022-12-31T15:20:02.966Z,0.97
2022-12-31T15:22:50.893Z,0.90
2022-12-31T15:25:21.316Z,0.90
2022-12-31T15:27:47.986Z,0.90
2022-12-31T15:30:44.683Z,0.80
2022-12-31T15:33:23.146Z,0.87
2022-12-31T15:35:51.880Z,0.80
2022-12-31T15:38:30.547Z,0.90
2022-12-31T15:40:57.074Z,1.00
2022-12-31T15:43:40.587Z,0.90
2022-12-31T15:46:25.395Z,1.00
2022-12-31T15:49:01.927Z,0.93
2022-12-31T15:51:36.470Z,1.00
2022-12-31T15:54:03.207Z,0.80
2022-12-31T15:56:45.188Z,0.80
2022-12-31T15:59:13.072Z,0.87
2022-12-31T16:01:40.608Z,1.00
2022-12-31T16:04:14.455Z,1.00
2022-12-31T16:06:43.741Z,0.93
2022-12-31T16:09:22.799Z,0.80
2022-12-31T16:11:49.599Z,1.00
2022-12-31T16:14:27.717Z,1.10
2022-12-31T16:16:59.073Z,0.90
2022-12-31T16:19:35.652Z,0.90
2022-12-31T16:22:07.640Z,0.90
2022-12-31T16:24:37.427Z,0.90
2022-12-31T16:27:15.089Z,1.00
2022-12-31T16:29:50.629Z,1.00
2022-12-31T16:32:20.589Z,1.17
2022-12-31T16:34:47.165Z,0.90
2022-12-31T16:37:18.429Z,1.00
2022-12-31T16:39:57.253Z,0.90
2022-12-31T16:42:24.840Z,0.90
2022-12-31T16:44:52.219Z,1.40
2022-12-31T16:47:22.042Z,1.33
2022-12-31T16:49:51.147Z,1.07
2022-12-31T16:52:38.851Z,1.30
2022-12-31T16:55:09.283Z,1.07
2022-12-31T16:57:35.828Z,1.00
2022-12-31T17:00:06.390Z,1.03
2022-12-31T17:02:40.575Z,1.13
2022-12-31T17:05:21.033Z,1.13
2022-12-31T17:07:47.741Z,1.03
2022-12-31T17:10:25.076Z,1.37
2022-12-31T17:13:31.084Z,1.00
2022-12-31T17:15:48.208Z,1.30
2022-12-31T17:18:26.384Z,1.17
2022-12-31T17:20:53.670Z,1.20
2022-12-31T17:23:28.472Z,1.10
2022-12-31T17:25:59.248Z,1.33
2022-12-31T17:28:26.113Z,1.20
2022-12-31T17:30:52.707Z,1.17
2022-12-31T17:33:22.333Z,1.30
2022-12-31T17:35:49.511Z,1.30
2022-12-31T17:38:22.273Z,1.43
2022-12-31T17:40:53.213Z,1.37
2022-12-31T17:43:21.159Z,1.13
2022-12-31T17:45:48.136Z,1.17
2022-12-31T17:48:15.942Z,1.40
2022-12-31T17:50:53.724Z,1.10
2022-12-31T17:53:20.415Z,1.13
2022-12-31T17:55:51.267Z,1.40
2022-12-31T17:58:29.718Z,1.40
2022-12-31T18:00:56.603Z,1.40
2022-12-31T18:03:23.195Z,2.90
2022-12-31T18:05:49.812Z,1.30
2022-12-31T18:08:16.436Z,1.30
2022-12-31T18:10:43.133Z,1.30
2022-12-31T18:13:28.430Z,1.50
2022-12-31T18:15:55.100Z,1.23
2022-12-31T18:18:26.158Z,1.50
2022-12-31T18:20:57.680Z,1.50
2022-12-31T18:23:46.307Z,1.73
2022-12-31T18:26:19.967Z,1.60
2022-12-31T18:28:46.959Z,1.50
2022-12-31T18:31:24.309Z,1.50
2022-12-31T18:33:51.296Z,1.60
2022-12-31T18:36:18.452Z,1.73
2022-12-31T18:38:45.329Z,1.67
2022-12-31T18:41:19.757Z,1.73
2022-12-31T18:43:46.413Z,1.53
2022-12-31T18:46:14.000Z,2.30
2022-12-31T18:48:44.188Z,1.73
2022-12-31T18:51:18.493Z,1.80
2022-12-31T18:53:45.105Z,1.77
2022-12-31T18:56:12.915Z,1.60
2022-12-31T18:58:39.824Z,1.70
2022-12-31T19:01:09.870Z,1.77
2022-12-31T19:03:36.471Z,2.00
2022-12-31T19:06:05.195Z,1.80
2022-12-31T19:08:32.947Z,1.83
2022-12-31T19:10:59.466Z,1.83
2022-12-31T19:13:26.030Z,1.77
2022-12-31T19:15:52.989Z,2.20
2022-12-31T19:18:19.791Z,1.70
2022-12-31T19:20:46.423Z,2.10
2022-12-31T19:23:18.164Z,1.90
2022-12-31T19:25:45.267Z,1.80
2022-12-31T19:28:19.864Z,2.23
2022-12-31T19:30:46.577Z,1.97
2022-12-31T19:33:13.216Z,2.20
2022-12-31T19:35:39.973Z,2.20
2022-12-31T19:38:28.741Z,2.00
2022-12-31T19:40:55.422Z,2.20
2022-12-31T19:43:22.922Z,2.10
2022-12-31T19:45:49.866Z,2.37
2022-12-31T19:48:19.097Z,2.37
2022-12-31T19:50:47.337Z,2.80
2022-12-31T19:53:16.216Z,1.93
2022-12-31T19:55:42.893Z,2.33
2022-12-31T19:58:14.598Z,2.30
2022-12-31T20:00:41.293Z,2.60
2022-12-31T20:03:08.061Z,2.43
2022-12-31T20:05:34.814Z,2.70
2022-12-31T20:08:01.346Z,2.67
2022-12-31T20:10:27.842Z,2.67
2022-12-31T20:12:54.480Z,2.60
2022-12-31T20:15:21.135Z,2.50
2022-12-31T20:17:47.729Z,2.40
2022-12-31T20:20:14.332Z,2.80
2022-12-31T20:22:41.067Z,2.97
2022-12-31T20:25:07.896Z,3.10
2022-12-31T20:27:34.676Z,2.60
2022-12-31T20:30:01.416Z,3.23
2022-12-31T20:32:28.011Z,2.87
2022-12-31T20:34:54.572Z,3.10
2022-12-31T20:37:21.204Z,3.00
2022-12-31T20:39:47.850Z,3.27
2022-12-31T20:42:14.552Z,3.30
2022-12-31T20:44:41.244Z,3.40
2022-12-31T20:47:07.799Z,3.00
2022-12-31T20:50:09.291Z,3.40
2022-12-31T20:52:21.003Z,3.27
2022-12-31T20:54:47.627Z,3.80
2022-12-31T20:57:14.234Z,3.87
2022-12-31T20:59:40.889Z,4.10
2022-12-31T21:02:34.454Z,3.97
2022-12-31T21:04:54.439Z,4.20
2022-12-31T21:07:21.339Z,4.57
2022-12-31T21:09:47.915Z,4.50
2022-12-31T21:12:33.133Z,4.30
2022-12-31T21:14:59.843Z,5.17
2022-12-31T21:17:26.475Z,4.60
2022-12-31T21:19:53.131Z,4.40
2022-12-31T21:22:19.860Z,4.37
2022-12-31T21:24:46.488Z,4.57
2022-12-31T21:27:13.155Z,5.23
2022-12-31T21:30:02.034Z,5.47
2022-12-31T21:32:26.504Z,5.10
2022-12-31T21:35:23.109Z,5.50
2022-12-31T21:37:59.214Z,5.40
2022-12-31T21:40:26.372Z,5.20
2022-12-31T21:42:53.113Z,5.60
2022-12-31T21:45:19.793Z,5.83
2022-12-31T21:48:05.013Z,5.73
2022-12-31T21:50:32.232Z,5.83
2022-12-31T21:52:58.901Z,5.87
2022-12-31T21:55:43.940Z,6.00
2022-12-31T21:58:27.645Z,6.13
2022-12-31T22:01:14.270Z,6.23
2022-12-31T22:03:41.132Z,6.67
2022-12-31T22:06:14.104Z,6.07
2022-12-31T22:08:41.883Z,6.10
2022-12-31T22:11:08.615Z,7.13
2022-12-31T22:13:35.371Z,7.00
2022-12-31T22:16:05.737Z,6.73
2022-12-31T22:18:35.006Z,6.93
2022-12-31T22:21:18.344Z,6.80
2022-12-31T22:23:45.506Z,6.53
2022-12-31T22:26:13.736Z,6.77
2022-12-31T22:28:40.763Z,7.30
2022-12-31T22:31:09.136Z,7.50
2022-12-31T22:33:35.702Z,6.67
2022-12-31T22:36:07.865Z,7.10
2022-12-31T22:38:34.544Z,7.03
2022-12-31T22:41:07.765Z,7.03
2022-12-31T22:43:35.940Z,7.53
2022-12-31T22:46:09.840Z,7.17
2022-12-31T22:48:37.073Z,6.80
2022-12-31T22:51:03.773Z,7.30
2022-12-31T22:53:30.347Z,7.87
2022-12-31T22:55:56.885Z,7.60
2022-12-31T22:58:23.817Z,7.93
2022-12-31T23:00:50.463Z,7.73
2022-12-31T23:03:17.175Z,7.63
2022-12-31T23:05:44.253Z,8.33
2022-12-31T23:08:20.581Z,8.33
2022-12-31T23:11:08.939Z,8.30
2022-12-31T23:13:59.083Z,8.57
2022-12-31T23:16:45.987Z,8.93
2022-12-31T23:19:31.184Z,9.00
2022-12-31T23:22:16.643Z,10.47
2022-12-31T23:24:43.286Z,9.77
2022-12-31T23:27:10.482Z,9.97
2022-12-31T23:29:45.636Z,9.80
2022-12-31T23:32:13.108Z,9.70
2022-12-31T23:34:39.715Z,10.37
2022-12-31T23:37:06.278Z,11.20
2022-12-31T23:39:32.912Z,11.27
2022-12-31T23:42:00.173Z,12.07
2022-12-31T23:44:27.133Z,13.23
2022-12-31T23:46:53.801Z,12.07
2022-12-31T23:49:20.474Z,13.60
2022-12-31T23:51:46.990Z,14.27
2022-12-31T23:54:14.777Z,13.87
2022-12-31T23:56:41.528Z,15.13
2022-12-31T23:59:09.595Z,14.20
